sensor_id;sensor_type;location;lat;lon;timestamp;P1;durP1;ratioP1;P2;durP2;ratioP2
16133;SDS011;8172;45.018;5.972;2022-07-29T00:03:11;2.33;;;2.03;;
16133;SDS011;8172;45.018;5.972;2022-07-29T00:08:18;2.43;;;2.10;;
16133;SDS011;8172;45.018;5.972;2022-07-29T00:13:27;2.73;;;2.13;;
16133;SDS011;8172;45.018;5.972;2022-07-29T00:18:36;2.77;;;2.20;;
16133;SDS011;8172;45.018;5.972;2022-07-29T00:23:44;2.83;;;2.00;;
16133;SDS011;8172;45.018;5.972;2022-07-29T00:28:51;2.77;;;2.10;;
16133;SDS011;8172;45.018;5.972;2022-07-29T00:33:59;3.70;;;2.10;;
16133;SDS011;8172;45.018;5.972;2022-07-29T00:39:07;4.23;;;2.40;;
16133;SDS011;8172;45.018;5.972;2022-07-29T00:44:14;2.40;;;2.20;;
16133;SDS011;8172;45.018;5.972;2022-07-29T00:49:21;4.23;;;2.40;;
16133;SDS011;8172;45.018;5.972;2022-07-29T00:54:29;3.37;;;2.10;;
16133;SDS011;8172;45.018;5.972;2022-07-29T00:59:36;2.47;;;2.20;;
16133;SDS011;8172;45.018;5.972;2022-07-29T01:04:43;2.37;;;2.00;;
16133;SDS011;8172;45.018;5.972;2022-07-29T01:09:51;3.17;;;2.10;;
16133;SDS011;8172;45.018;5.972;2022-07-29T01:15:01;3.00;;;2.20;;
16133;SDS011;8172;45.018;5.972;2022-07-29T01:30:32;2.40;;;2.10;;
16133;SDS011;8172;45.018;5.972;2022-07-29T01:35:41;5.93;;;2.37;;
16133;SDS011;8172;45.018;5.972;2022-07-29T01:40:53;2.83;;;2.30;;
16133;SDS011;8172;45.018;5.972;2022-07-29T01:46:01;3.90;;;2.23;;
16133;SDS011;8172;45.018;5.972;2022-07-29T01:51:13;2.23;;;2.03;;
16133;SDS011;8172;45.018;5.972;2022-07-29T01:56:21;3.00;;;2.17;;
16133;SDS011;8172;45.018;5.972;2022-07-29T02:01:31;2.90;;;2.20;;
16133;SDS011;8172;45.018;5.972;2022-07-29T02:06:40;3.80;;;2.30;;
16133;SDS011;8172;45.018;5.972;2022-07-29T02:11:51;4.20;;;2.23;;
16133;SDS011;8172;45.018;5.972;2022-07-29T02:17:00;2.47;;;2.27;;
16133;SDS011;8172;45.018;5.972;2022-07-29T02:22:08;2.40;;;2.13;;
16133;SDS011;8172;45.018;5.972;2022-07-29T02:27:18;4.83;;;2.27;;
16133;SDS011;8172;45.018;5.972;2022-07-29T02:32:25;3.10;;;2.30;;
16133;SDS011;8172;45.018;5.972;2022-07-29T02:37:36;2.50;;;2.30;;
16133;SDS011;8172;45.018;5.972;2022-07-29T02:42:44;4.77;;;2.20;;
16133;SDS011;8172;45.018;5.972;2022-07-29T02:47:53;2.67;;;2.40;;
16133;SDS011;8172;45.018;5.972;2022-07-29T02:53:07;2.73;;;2.47;;
16133;SDS011;8172;45.018;5.972;2022-07-29T03:03:24;2.53;;;2.00;;
16133;SDS011;8172;45.018;5.972;2022-07-29T03:08:33;3.40;;;2.13;;
16133;SDS011;8172;45.018;5.972;2022-07-29T03:13:42;4.20;;;2.40;;
16133;SDS011;8172;45.018;5.972;2022-07-29T03:18:51;4.10;;;2.30;;
16133;SDS011;8172;45.018;5.972;2022-07-29T03:24:00;3.23;;;2.20;;
16133;SDS011;8172;45.018;5.972;2022-07-29T03:29:09;3.53;;;2.30;;
16133;SDS011;8172;45.018;5.972;2022-07-29T03:34:18;3.10;;;2.20;;
16133;SDS011;8172;45.018;5.972;2022-07-29T03:39:29;3.10;;;2.30;;
16133;SDS011;8172;45.018;5.972;2022-07-29T03:44:39;3.37;;;2.10;;
16133;SDS011;8172;45.018;5.972;2022-07-29T03:49:50;2.40;;;2.20;;
16133;SDS011;8172;45.018;5.972;2022-07-29T03:54:59;2.47;;;2.20;;
16133;SDS011;8172;45.018;5.972;2022-07-29T04:00:07;3.73;;;2.30;;
16133;SDS011;8172;45.018;5.972;2022-07-29T04:05:16;3.27;;;2.10;;
16133;SDS011;8172;45.018;5.972;2022-07-29T04:10:24;2.70;;;2.30;;
16133;SDS011;8172;45.018;5.972;2022-07-29T04:15:33;2.73;;;2.17;;
16133;SDS011;8172;45.018;5.972;2022-07-29T04:20:41;2.87;;;2.20;;
16133;SDS011;8172;45.018;5.972;2022-07-29T04:25:49;2.50;;;2.30;;
16133;SDS011;8172;45.018;5.972;2022-07-29T04:30:56;2.30;;;2.10;;
16133;SDS011;8172;45.018;5.972;2022-07-29T04:36:04;3.83;;;2.40;;
16133;SDS011;8172;45.018;5.972;2022-07-29T04:41:13;2.33;;;2.13;;
16133;SDS011;8172;45.018;5.972;2022-07-29T04:46:22;3.40;;;2.37;;
16133;SDS011;8172;45.018;5.972;2022-07-29T04:51:30;4.47;;;2.33;;
16133;SDS011;8172;45.018;5.972;2022-07-29T04:56:37;3.80;;;2.30;;
16133;SDS011;8172;45.018;5.972;2022-07-29T05:01:45;2.80;;;2.30;;
16133;SDS011;8172;45.018;5.972;2022-07-29T05:06:54;2.73;;;2.03;;
16133;SDS011;8172;45.018;5.972;2022-07-29T05:12:02;3.03;;;2.50;;
16133;SDS011;8172;45.018;5.972;2022-07-29T05:17:10;2.40;;;1.90;;
16133;SDS011;8172;45.018;5.972;2022-07-29T05:22:19;2.97;;;2.30;;
16133;SDS011;8172;45.018;5.972;2022-07-29T05:27:26;3.27;;;2.40;;
16133;SDS011;8172;45.018;5.972;2022-07-29T05:32:35;2.83;;;2.50;;
16133;SDS011;8172;45.018;5.972;2022-07-29T05:37:46;3.43;;;2.10;;
16133;SDS011;8172;45.018;5.972;2022-07-29T05:42:54;4.87;;;2.57;;
16133;SDS011;8172;45.018;5.972;2022-07-29T05:48:02;2.50;;;2.30;;
16133;SDS011;8172;45.018;5.972;2022-07-29T05:53:10;3.57;;;2.30;;
16133;SDS011;8172;45.018;5.972;2022-07-29T05:58:19;3.00;;;2.50;;
16133;SDS011;8172;45.018;5.972;2022-07-29T06:03:28;3.80;;;2.50;;
16133;SDS011;8172;45.018;5.972;2022-07-29T06:08:36;2.53;;;2.27;;
16133;SDS011;8172;45.018;5.972;2022-07-29T06:13:52;2.97;;;2.50;;
16133;SDS011;8172;45.018;5.972;2022-07-29T06:19:00;3.60;;;2.40;;
16133;SDS011;8172;45.018;5.972;2022-07-29T06:24:11;2.50;;;2.30;;
16133;SDS011;8172;45.018;5.972;2022-07-29T06:29:25;2.73;;;2.50;;
16133;SDS011;8172;45.018;5.972;2022-07-29T06:34:35;2.53;;;2.30;;
16133;SDS011;8172;45.018;5.972;2022-07-29T06:39:52;3.07;;;2.40;;
16133;SDS011;8172;45.018;5.972;2022-07-29T06:45:04;3.20;;;2.70;;
16133;SDS011;8172;45.018;5.972;2022-07-29T06:50:14;3.10;;;2.30;;
16133;SDS011;8172;45.018;5.972;2022-07-29T06:55:28;4.47;;;2.67;;
16133;SDS011;8172;45.018;5.972;2022-07-29T07:00:39;9.57;;;2.80;;
16133;SDS011;8172;45.018;5.972;2022-07-29T07:05:56;4.13;;;2.60;;
16133;SDS011;8172;45.018;5.972;2022-07-29T07:11:34;3.20;;;2.50;;
16133;SDS011;8172;45.018;5.972;2022-07-29T07:16:54;3.00;;;2.70;;
16133;SDS011;8172;45.018;5.972;2022-07-29T07:22:02;2.80;;;2.60;;
16133;SDS011;8172;45.018;5.972;2022-07-29T07:27:10;3.50;;;2.70;;
16133;SDS011;8172;45.018;5.972;2022-07-29T07:32:18;6.77;;;2.80;;
16133;SDS011;8172;45.018;5.972;2022-07-29T07:37:27;4.53;;;2.77;;
16133;SDS011;8172;45.018;5.972;2022-07-29T07:42:36;3.97;;;2.70;;
16133;SDS011;8172;45.018;5.972;2022-07-29T07:47:46;6.17;;;2.67;;
16133;SDS011;8172;45.018;5.972;2022-07-29T07:52:55;3.40;;;2.80;;
16133;SDS011;8172;45.018;5.972;2022-07-29T07:58:04;3.30;;;2.93;;
16133;SDS011;8172;45.018;5.972;2022-07-29T08:03:12;3.03;;;2.40;;
16133;SDS011;8172;45.018;5.972;2022-07-29T08:08:21;2.70;;;2.50;;
16133;SDS011;8172;45.018;5.972;2022-07-29T08:13:30;4.03;;;2.37;;
16133;SDS011;8172;45.018;5.972;2022-07-29T08:18:39;3.30;;;2.50;;
16133;SDS011;8172;45.018;5.972;2022-07-29T08:23:51;3.90;;;2.77;;
16133;SDS011;8172;45.018;5.972;2022-07-29T08:29:02;4.60;;;2.70;;
16133;SDS011;8172;45.018;5.972;2022-07-29T08:34:11;4.07;;;2.97;;
16133;SDS011;8172;45.018;5.972;2022-07-29T08:39:23;4.50;;;2.80;;
16133;SDS011;8172;45.018;5.972;2022-07-29T08:45:07;5.03;;;2.80;;
16133;SDS011;8172;45.018;5.972;2022-07-29T08:50:18;3.87;;;2.40;;
16133;SDS011;8172;45.018;5.972;2022-07-29T08:55:29;2.80;;;2.60;;
16133;SDS011;8172;45.018;5.972;2022-07-29T09:00:41;4.23;;;2.63;;
16133;SDS011;8172;45.018;5.972;2022-07-29T09:06:01;7.27;;;3.40;;
16133;SDS011;8172;45.018;5.972;2022-07-29T09:11:11;6.83;;;3.40;;
16133;SDS011;8172;45.018;5.972;2022-07-29T09:16:21;9.57;;;3.20;;
16133;SDS011;8172;45.018;5.972;2022-07-29T09:21:33;4.87;;;3.33;;
16133;SDS011;8172;45.018;5.972;2022-07-29T09:26:45;5.67;;;3.10;;
16133;SDS011;8172;45.018;5.972;2022-07-29T09:31:59;3.77;;;3.20;;
16133;SDS011;8172;45.018;5.972;2022-07-29T09:37:11;4.70;;;3.57;;
16133;SDS011;8172;45.018;5.972;2022-07-29T09:52:48;5.10;;;3.80;;
16133;SDS011;8172;45.018;5.972;2022-07-29T09:57:54;4.90;;;4.00;;
16133;SDS011;8172;45.018;5.972;2022-07-29T10:03:04;6.73;;;3.80;;
16133;SDS011;8172;45.018;5.972;2022-07-29T10:08:11;6.73;;;4.10;;
16133;SDS011;8172;45.018;5.972;2022-07-29T10:13:18;5.37;;;4.10;;
16133;SDS011;8172;45.018;5.972;2022-07-29T10:18:25;6.10;;;4.17;;
16133;SDS011;8172;45.018;5.972;2022-07-29T10:23:33;6.80;;;4.23;;
16133;SDS011;8172;45.018;5.972;2022-07-29T10:28:43;4.60;;;4.10;;
16133;SDS011;8172;45.018;5.972;2022-07-29T10:44:15;5.23;;;4.10;;
16133;SDS011;8172;45.018;5.972;2022-07-29T10:49:23;5.37;;;4.40;;
16133;SDS011;8172;45.018;5.972;2022-07-29T10:59:43;5.13;;;4.23;;
16133;SDS011;8172;45.018;5.972;2022-07-29T11:15:10;5.47;;;3.90;;
16133;SDS011;8172;45.018;5.972;2022-07-29T11:25:31;4.10;;;3.70;;
16133;SDS011;8172;45.018;5.972;2022-07-29T11:36:06;5.57;;;4.20;;
16133;SDS011;8172;45.018;5.972;2022-07-29T11:46:14;6.10;;;4.57;;
16133;SDS011;8172;45.018;5.972;2022-07-29T11:51:23;5.63;;;4.70;;
16133;SDS011;8172;45.018;5.972;2022-07-29T11:56:31;5.37;;;4.53;;
16133;SDS011;8172;45.018;5.972;2022-07-29T12:06:54;6.07;;;5.33;;
16133;SDS011;8172;45.018;5.972;2022-07-29T12:12:03;6.57;;;5.17;;
16133;SDS011;8172;45.018;5.972;2022-07-29T12:27:32;6.63;;;5.90;;
16133;SDS011;8172;45.018;5.972;2022-07-29T12:32:43;6.43;;;5.70;;
16133;SDS011;8172;45.018;5.972;2022-07-29T12:37:49;6.60;;;6.00;;
16133;SDS011;8172;45.018;5.972;2022-07-29T12:48:09;5.33;;;4.83;;
16133;SDS011;8172;45.018;5.972;2022-07-29T12:53:16;5.20;;;4.70;;
16133;SDS011;8172;45.018;5.972;2022-07-29T13:13:55;6.87;;;4.50;;
16133;SDS011;8172;45.018;5.972;2022-07-29T13:19:05;6.57;;;5.97;;
16133;SDS011;8172;45.018;5.972;2022-07-29T13:24:14;6.47;;;5.87;;
16133;SDS011;8172;45.018;5.972;2022-07-29T13:29:23;6.57;;;5.57;;
16133;SDS011;8172;45.018;5.972;2022-07-29T13:34:33;6.53;;;4.93;;
16133;SDS011;8172;45.018;5.972;2022-07-29T13:39:40;5.07;;;4.40;;
16133;SDS011;8172;45.018;5.972;2022-07-29T13:44:49;5.73;;;4.13;;
16133;SDS011;8172;45.018;5.972;2022-07-29T13:49:56;5.17;;;4.60;;
16133;SDS011;8172;45.018;5.972;2022-07-29T13:55:04;5.67;;;3.77;;
16133;SDS011;8172;45.018;5.972;2022-07-29T14:00:11;4.17;;;3.77;;
16133;SDS011;8172;45.018;5.972;2022-07-29T14:05:20;3.77;;;3.37;;
16133;SDS011;8172;45.018;5.972;2022-07-29T14:10:27;4.63;;;3.97;;
16133;SDS011;8172;45.018;5.972;2022-07-29T14:15:34;3.80;;;3.50;;
16133;SDS011;8172;45.018;5.972;2022-07-29T14:20:43;3.30;;;2.87;;
16133;SDS011;8172;45.018;5.972;2022-07-29T14:25:50;3.63;;;3.00;;
16133;SDS011;8172;45.018;5.972;2022-07-29T14:30:57;3.30;;;3.00;;
16133;SDS011;8172;45.018;5.972;2022-07-29T14:36:04;3.07;;;2.77;;
16133;SDS011;8172;45.018;5.972;2022-07-29T14:41:12;6.77;;;3.27;;
16133;SDS011;8172;45.018;5.972;2022-07-29T14:46:19;4.20;;;3.80;;
16133;SDS011;8172;45.018;5.972;2022-07-29T14:51:26;5.60;;;3.40;;
16133;SDS011;8172;45.018;5.972;2022-07-29T14:56:35;3.77;;;3.40;;
16133;SDS011;8172;45.018;5.972;2022-07-29T15:01:44;3.50;;;3.20;;
16133;SDS011;8172;45.018;5.972;2022-07-29T15:06:52;4.07;;;3.07;;
16133;SDS011;8172;45.018;5.972;2022-07-29T15:12:00;3.70;;;3.20;;
16133;SDS011;8172;45.018;5.972;2022-07-29T15:17:08;3.73;;;3.30;;
16133;SDS011;8172;45.018;5.972;2022-07-29T15:22:16;2.77;;;2.20;;
16133;SDS011;8172;45.018;5.972;2022-07-29T15:27:24;3.00;;;2.70;;
16133;SDS011;8172;45.018;5.972;2022-07-29T15:32:31;3.20;;;2.50;;
16133;SDS011;8172;45.018;5.972;2022-07-29T15:37:39;4.60;;;2.63;;
16133;SDS011;8172;45.018;5.972;2022-07-29T15:42:48;2.77;;;2.57;;
16133;SDS011;8172;45.018;5.972;2022-07-29T15:47:55;2.67;;;2.47;;
16133;SDS011;8172;45.018;5.972;2022-07-29T15:53:02;3.87;;;2.33;;
16133;SDS011;8172;45.018;5.972;2022-07-29T15:58:09;4.10;;;2.50;;
16133;SDS011;8172;45.018;5.972;2022-07-29T16:03:16;2.90;;;2.00;;
16133;SDS011;8172;45.018;5.972;2022-07-29T16:08:25;3.33;;;2.50;;
16133;SDS011;8172;45.018;5.972;2022-07-29T16:13:32;2.43;;;2.23;;
16133;SDS011;8172;45.018;5.972;2022-07-29T16:18:40;2.77;;;2.20;;
16133;SDS011;8172;45.018;5.972;2022-07-29T16:23:47;2.53;;;2.33;;
16133;SDS011;8172;45.018;5.972;2022-07-29T16:28:54;2.67;;;2.17;;
16133;SDS011;8172;45.018;5.972;2022-07-29T16:34:02;3.53;;;2.20;;
16133;SDS011;8172;45.018;5.972;2022-07-29T16:39:09;3.13;;;2.50;;
16133;SDS011;8172;45.018;5.972;2022-07-29T16:44:17;5.70;;;2.20;;
16133;SDS011;8172;45.018;5.972;2022-07-29T16:49:26;2.40;;;2.17;;
16133;SDS011;8172;45.018;5.972;2022-07-29T16:54:33;3.27;;;2.43;;
16133;SDS011;8172;45.018;5.972;2022-07-29T16:59:40;2.70;;;2.43;;
16133;SDS011;8172;45.018;5.972;2022-07-29T17:04:47;2.40;;;2.13;;
16133;SDS011;8172;45.018;5.972;2022-07-29T17:09:54;3.43;;;2.23;;
16133;SDS011;8172;45.018;5.972;2022-07-29T17:15:04;2.57;;;2.20;;
16133;SDS011;8172;45.018;5.972;2022-07-29T17:20:12;2.53;;;2.20;;
16133;SDS011;8172;45.018;5.972;2022-07-29T17:25:21;2.50;;;2.30;;
16133;SDS011;8172;45.018;5.972;2022-07-29T17:30:28;3.60;;;2.20;;
16133;SDS011;8172;45.018;5.972;2022-07-29T17:35:35;3.80;;;2.20;;
16133;SDS011;8172;45.018;5.972;2022-07-29T17:40:44;2.60;;;2.40;;
16133;SDS011;8172;45.018;5.972;2022-07-29T17:45:53;2.50;;;2.30;;
16133;SDS011;8172;45.018;5.972;2022-07-29T17:51:02;2.57;;;2.37;;
16133;SDS011;8172;45.018;5.972;2022-07-29T17:56:09;2.40;;;2.20;;
16133;SDS011;8172;45.018;5.972;2022-07-29T18:01:18;2.53;;;2.30;;
16133;SDS011;8172;45.018;5.972;2022-07-29T18:06:25;3.23;;;2.70;;
16133;SDS011;8172;45.018;5.972;2022-07-29T18:11:32;3.50;;;2.90;;
16133;SDS011;8172;45.018;5.972;2022-07-29T18:16:39;3.03;;;2.80;;
16133;SDS011;8172;45.018;5.972;2022-07-29T18:21:46;3.03;;;2.40;;
16133;SDS011;8172;45.018;5.972;2022-07-29T18:26:55;2.90;;;2.60;;
16133;SDS011;8172;45.018;5.972;2022-07-29T18:32:03;3.13;;;2.30;;
16133;SDS011;8172;45.018;5.972;2022-07-29T18:37:10;2.70;;;2.50;;
16133;SDS011;8172;45.018;5.972;2022-07-29T18:42:17;3.13;;;2.83;;
16133;SDS011;8172;45.018;5.972;2022-07-29T18:47:24;2.90;;;2.60;;
16133;SDS011;8172;45.018;5.972;2022-07-29T18:52:33;3.67;;;2.80;;
16133;SDS011;8172;45.018;5.972;2022-07-29T18:57:40;3.27;;;2.97;;
16133;SDS011;8172;45.018;5.972;2022-07-29T19:02:49;3.10;;;2.80;;
16133;SDS011;8172;45.018;5.972;2022-07-29T19:07:57;3.20;;;2.90;;
16133;SDS011;8172;45.018;5.972;2022-07-29T19:13:04;4.20;;;2.90;;
16133;SDS011;8172;45.018;5.972;2022-07-29T19:18:12;3.73;;;3.10;;
16133;SDS011;8172;45.018;5.972;2022-07-29T19:23:19;3.33;;;3.03;;
16133;SDS011;8172;45.018;5.972;2022-07-29T19:28:27;4.07;;;2.63;;
16133;SDS011;8172;45.018;5.972;2022-07-29T19:33:34;3.00;;;2.80;;
16133;SDS011;8172;45.018;5.972;2022-07-29T19:38:42;3.50;;;3.03;;
16133;SDS011;8172;45.018;5.972;2022-07-29T19:43:50;3.40;;;3.10;;
16133;SDS011;8172;45.018;5.972;2022-07-29T19:48:59;5.47;;;2.93;;
16133;SDS011;8172;45.018;5.972;2022-07-29T19:54:15;3.93;;;3.23;;
16133;SDS011;8172;45.018;5.972;2022-07-29T19:59:28;6.57;;;3.30;;
16133;SDS011;8172;45.018;5.972;2022-07-29T20:04:36;3.80;;;3.40;;
16133;SDS011;8172;45.018;5.972;2022-07-29T20:09:43;3.67;;;3.37;;
16133;SDS011;8172;45.018;5.972;2022-07-29T20:14:51;4.57;;;3.30;;
16133;SDS011;8172;45.018;5.972;2022-07-29T20:19:58;3.97;;;3.33;;
16133;SDS011;8172;45.018;5.972;2022-07-29T20:25:06;4.10;;;3.80;;
16133;SDS011;8172;45.018;5.972;2022-07-29T20:30:13;5.37;;;3.13;;
16133;SDS011;8172;45.018;5.972;2022-07-29T20:35:21;3.77;;;3.30;;
16133;SDS011;8172;45.018;5.972;2022-07-29T20:40:28;3.50;;;3.20;;
16133;SDS011;8172;45.018;5.972;2022-07-29T20:45:35;4.40;;;3.10;;
16133;SDS011;8172;45.018;5.972;2022-07-29T20:50:43;3.40;;;3.07;;
16133;SDS011;8172;45.018;5.972;2022-07-29T20:55:52;3.30;;;3.00;;
16133;SDS011;8172;45.018;5.972;2022-07-29T21:00:59;5.13;;;3.67;;
16133;SDS011;8172;45.018;5.972;2022-07-29T21:06:07;3.50;;;3.20;;
16133;SDS011;8172;45.018;5.972;2022-07-29T21:11:15;3.53;;;3.23;;
16133;SDS011;8172;45.018;5.972;2022-07-29T21:16:23;3.97;;;3.47;;
16133;SDS011;8172;45.018;5.972;2022-07-29T21:21:33;5.23;;;3.50;;
16133;SDS011;8172;45.018;5.972;2022-07-29T21:26:40;3.50;;;3.20;;
16133;SDS011;8172;45.018;5.972;2022-07-29T21:31:48;3.87;;;3.53;;
16133;SDS011;8172;45.018;5.972;2022-07-29T21:36:55;3.87;;;3.20;;
16133;SDS011;8172;45.018;5.972;2022-07-29T21:42:02;3.33;;;3.03;;
16133;SDS011;8172;45.018;5.972;2022-07-29T21:47:11;3.67;;;3.23;;
16133;SDS011;8172;45.018;5.972;2022-07-29T21:52:18;3.93;;;3.00;;
16133;SDS011;8172;45.018;5.972;2022-07-29T21:57:25;3.73;;;3.10;;
16133;SDS011;8172;45.018;5.972;2022-07-29T22:02:32;2.53;;;2.33;;
16133;SDS011;8172;45.018;5.972;2022-07-29T22:07:39;3.17;;;2.57;;
16133;SDS011;8172;45.018;5.972;2022-07-29T22:12:49;3.73;;;2.50;;
16133;SDS011;8172;45.018;5.972;2022-07-29T22:17:59;3.33;;;2.60;;
16133;SDS011;8172;45.018;5.972;2022-07-29T22:23:06;3.57;;;2.30;;
16133;SDS011;8172;45.018;5.972;2022-07-29T22:28:13;4.73;;;2.30;;
16133;SDS011;8172;45.018;5.972;2022-07-29T22:33:20;2.60;;;2.40;;
16133;SDS011;8172;45.018;5.972;2022-07-29T22:38:27;3.57;;;2.60;;
16133;SDS011;8172;45.018;5.972;2022-07-29T22:43:34;3.10;;;2.80;;
16133;SDS011;8172;45.018;5.972;2022-07-29T22:48:42;2.93;;;2.63;;
16133;SDS011;8172;45.018;5.972;2022-07-29T22:53:49;3.63;;;2.63;;
16133;SDS011;8172;45.018;5.972;2022-07-29T22:58:57;3.60;;;2.70;;
16133;SDS011;8172;45.018;5.972;2022-07-29T23:04:04;2.87;;;2.40;;
16133;SDS011;8172;45.018;5.972;2022-07-29T23:09:11;3.63;;;2.40;;
16133;SDS011;8172;45.018;5.972;2022-07-29T23:14:18;3.27;;;2.60;;
16133;SDS011;8172;45.018;5.972;2022-07-29T23:19:25;3.50;;;2.67;;
16133;SDS011;8172;45.018;5.972;2022-07-29T23:24:32;3.17;;;2.87;;
16133;SDS011;8172;45.018;5.972;2022-07-29T23:29:39;3.10;;;2.70;;
16133;SDS011;8172;45.018;5.972;2022-07-29T23:34:46;3.40;;;2.90;;
16133;SDS011;8172;45.018;5.972;2022-07-29T23:39:53;2.97;;;2.67;;
16133;SDS011;8172;45.018;5.972;2022-07-29T23:45:00;2.97;;;2.60;;
16133;SDS011;8172;45.018;5.972;2022-07-29T23:50:07;2.93;;;2.73;;
16133;SDS011;8172;45.018;5.972;2022-07-29T23:55:16;3.10;;;2.80;;
